Lovely, KY (41231)

7:30 AM EST on December 21, 2014 (GMT -0500)
West Williamson, WV | Change Station
CLOSE
Current Station
Personal Weather Station
Location: Williamson, WV
Elevation: 682 ft
Nearby Weather Stations

Elev 682 ft 37.68 °N, 82.29 °W | Updated 21 seconds ago

Partly Cloudy
Partly Cloudy
25.3 °F
Feels Like 25 °F
N
0.0
Wind Variable Wind from ESE
Gusts 0.0 mph

Today
High -- | Low -- °F
--% Chance of Precip.
Yesterday
High -- | Low -- °F
Precip. -- in
7:41 AM 5:14 PM
Waning Crescent, 0% visible
Pressure 30.28 in
Visibility 7.0 miles
Clouds Clear
Windchill 25 °F
Dew Point 24 °F
Humidity 95%
Rainfall 0.00 in
Snow Depth Not available.
UV 0 out of 12
Pollen .10 out of 12
Air Quality Not available.
Flu Activity Not available.
METAR KSJS 211215Z AUTO 00000KT 7SM CLR M04/M04 A3028 RMK AO2 T10411044

More Conditions Fewer Conditions

Pressure 30.28 in
Visibility 7.0 miles
Clouds Clear
Windchill 25 °F
Dew Point 24 °F
Humidity 95%
Rainfall 0.00 in
Snow Depth Not available.
UV 0 out of 12
Pollen .10 out of 12
Air Quality Not available.
Flu Activity Not available.
METAR KSJS 211215Z AUTO 00000KT 7SM CLR M04/M04 A3028 RMK AO2 T10411044

More Conditions Fewer Conditions

10-Day Weather Forecast

Almanac

Astronomy

Dec. 21, 2014 Rise Set
Actual Time
Civil Twilight
Nautical Twilight
Astronomical Twilight
Moon
Length of Visible Light
Length of Day
Tomorrow will be .
, % of the Moon is Illuminated

Today's Extremes

State Highs State Lows

Community

WunderPhotos

Upload Photos

1,779,372 photos uploaded!

WunderBlogs® & News

Nearby

Air Quality

  Air Quality AQ Index Pollutant
Not available.

Snow Depth

Station Depth Elevation

Earthquake Activity

City Distance Mag. Time & Date
Minimum magnitude displayed is 2.5.

Coastal Water Temperatures

Place Temperature

Nearby Weather Stations